Time;durP1;ratioP1;P1;durP2;ratioP2;P2;SDS_P1;SDS_P2;PMS_P1;PMS_P2;Temp;Humidity;BMP_temperature;BMP_pressure;BME280_temperature;BME280_humidity;BME280_pressure;Samples;Min_cycle;Max_cycle;Signal;HPM_P1;HPM_P2
2022/10/28 00:02:01;;;;;;;0.10;0.10;;;14.30;99.90;;;;;;5006133;28;20184;-83
2022/10/28 00:04:27;;;;;;;0.10;0.10;;;14.40;99.90;;;;;;4989303;28;20600;-80
2022/10/28 00:06:52;;;;;;;0.10;0.10;;;14.30;99.90;;;;;;5008395;28;20190;-81
2022/10/28 00:09:18;;;;;;;0.10;0.10;;;14.30;99.90;;;;;;5008349;28;20191;-83
2022/10/28 00:11:43;;;;;;;0.10;0.10;;;14.30;99.90;;;;;;5000164;28;20244;-83
2022/10/28 00:14:09;;;;;;;0.10;0.10;;;14.30;99.90;;;;;;4995342;28;20184;-82
2022/10/28 00:16:36;;;;;;;0.20;0.20;;;14.30;99.90;;;;;;5003468;28;20192;-82
2022/10/28 00:19:04;;;;;;;0.10;0.10;;;14.30;99.90;;;;;;5001482;28;20230;-83
2022/10/28 00:21:33;;;;;;;0.10;0.10;;;14.20;99.90;;;;;;5006205;28;20708;-83
2022/10/28 00:23:59;;;;;;;0.10;0.10;;;14.20;99.90;;;;;;5002804;28;20533;-84
2022/10/28 00:26:27;;;;;;;0.20;0.20;;;14.10;99.90;;;;;;5006825;28;20432;-84
2022/10/28 00:28:56;;;;;;;0.10;0.10;;;14.10;99.90;;;;;;5007771;28;20188;-84
2022/10/28 00:31:23;;;;;;;0.10;0.10;;;14.10;99.90;;;;;;4999350;28;20846;-84
2022/10/28 00:33:49;;;;;;;0.10;0.10;;;14.10;99.90;;;;;;5004479;28;20480;-83
2022/10/28 00:36:23;;;;;;;0.10;0.10;;;14.10;99.90;;;;;;5002113;28;20969;-83
2022/10/28 00:38:50;;;;;;;0.10;0.10;;;14.00;99.90;;;;;;5000324;28;20251;-83
2022/10/28 00:41:28;;;;;;;0.10;0.10;;;14.00;99.90;;;;;;5005135;28;20443;-83
2022/10/28 00:43:56;;;;;;;0.10;0.10;;;14.00;99.90;;;;;;5001313;28;20515;-83
2022/10/28 00:46:31;;;;;;;0.10;0.10;;;14.00;99.90;;;;;;5001950;28;20442;-84
2022/10/28 00:49:01;;;;;;;0.10;0.10;;;14.00;99.90;;;;;;4994616;28;20951;-83
2022/10/28 00:51:30;;;;;;;0.10;0.10;;;14.00;99.90;;;;;;5005612;28;20435;-83
2022/10/28 00:53:56;;;;;;;0.10;0.10;;;13.90;99.90;;;;;;5003849;28;20477;-83
2022/10/28 00:56:25;;;;;;;0.10;0.10;;;13.90;99.90;;;;;;5007877;28;20522;-84
2022/10/28 00:58:55;;;;;;;0.10;0.10;;;13.90;99.90;;;;;;5005993;28;20238;-84
2022/10/28 01:01:21;;;;;;;0.10;0.10;;;13.90;99.90;;;;;;4987581;28;20450;-84
2022/10/28 01:03:47;;;;;;;0.20;0.20;;;13.90;99.90;;;;;;4990522;28;20479;-83
2022/10/28 01:06:13;;;;;;;0.10;0.10;;;13.90;99.90;;;;;;5007423;28;20192;-83
2022/10/28 01:08:38;;;;;;;0.10;0.10;;;13.90;99.90;;;;;;5007217;28;20196;-82
2022/10/28 01:11:51;;;;;;;0.10;0.10;;;13.90;99.90;;;;;;4986773;28;20943;-80
2022/10/28 01:14:33;;;;;;;0.10;0.10;;;13.80;99.90;;;;;;4939432;29;20192;-81
2022/10/28 01:17:41;;;;;;;0.10;0.10;;;13.80;99.90;;;;;;4998745;28;20451;-81
2022/10/28 01:20:21;;;;;;;0.10;0.10;;;13.80;99.90;;;;;;5006173;28;20451;-80
2022/10/28 01:22:58;;;;;;;0.10;0.10;;;13.80;99.90;;;;;;4989334;28;20967;-81
2022/10/28 01:26:02;;;;;;;0.10;0.10;;;13.80;99.90;;;;;;5007769;28;20438;-81
2022/10/28 01:28:50;;;;;;;0.10;0.10;;;13.70;99.90;;;;;;4944649;28;20537;-81
2022/10/28 01:31:21;;;;;;;0.20;0.20;;;13.70;99.90;;;;;;5003708;28;20990;-83
2022/10/28 01:34:24;;;;;;;0.10;0.10;;;13.60;99.90;;;;;;5010177;28;20489;-81
2022/10/28 01:37:28;;;;;;;0.10;0.10;;;13.70;99.90;;;;;;4992158;28;20443;-81
2022/10/28 01:40:28;;;;;;;0.10;0.10;;;13.60;99.90;;;;;;4938442;28;20565;-80
2022/10/28 01:43:04;;;;;;;0.20;0.20;;;13.50;99.90;;;;;;4994541;28;20466;-83
2022/10/28 01:45:36;;;;;;;0.10;0.10;;;13.50;99.90;;;;;;5008196;28;20501;-81
2022/10/28 01:48:07;;;;;;;0.10;0.10;;;13.50;99.90;;;;;;4992625;28;20439;-82
2022/10/28 01:51:01;;;;;;;0.20;0.20;;;13.50;99.90;;;;;;4992596;28;20887;-81
2022/10/28 01:53:32;;;;;;;0.10;0.10;;;13.50;99.90;;;;;;5002494;28;20448;-81
2022/10/28 01:56:03;;;;;;;0.10;0.10;;;13.50;99.90;;;;;;5003341;28;20885;-81
2022/10/28 01:58:30;;;;;;;0.10;0.10;;;13.40;99.90;;;;;;4990255;28;20444;-80
2022/10/28 02:00:59;;;;;;;0.10;0.10;;;13.50;99.90;;;;;;5008279;28;20486;-81
2022/10/28 02:03:26;;;;;;;0.10;0.10;;;13.50;99.90;;;;;;5013661;28;20581;-81
2022/10/28 02:05:55;;;;;;;0.10;0.10;;;13.50;99.90;;;;;;4986732;28;20512;-81
2022/10/28 02:08:45;;;;;;;0.10;0.10;;;13.50;99.90;;;;;;5009428;28;20460;-80
2022/10/28 02:11:21;;;;;;;0.10;0.10;;;13.40;99.90;;;;;;4999343;28;20451;-81
2022/10/28 02:14:08;;;;;;;0.10;0.10;;;13.50;99.90;;;;;;4990566;28;20511;-81
2022/10/28 02:16:55;;;;;;;0.10;0.10;;;13.40;99.90;;;;;;5004554;28;20449;-81
2022/10/28 02:20:01;;;;;;;0.10;0.10;;;13.40;99.90;;;;;;5019056;28;20508;-82
2022/10/28 02:22:49;;;;;;;0.10;0.10;;;13.40;99.90;;;;;;5009584;28;20502;-83
2022/10/28 02:25:29;;;;;;;0.10;0.10;;;13.40;99.90;;;;;;4991210;28;20477;-84
2022/10/28 02:28:03;;;;;;;0.10;0.10;;;13.40;99.90;;;;;;4991391;28;20444;-83
2022/10/28 02:30:38;;;;;;;0.10;0.10;;;13.40;99.90;;;;;;5008524;28;20440;-83
2022/10/28 02:33:09;;;;;;;0.10;0.10;;;13.40;99.90;;;;;;4995381;28;20527;-81
2022/10/28 02:35:53;;;;;;;0.10;0.10;;;13.40;99.90;;;;;;5008181;28;21252;-83
2022/10/28 02:38:24;;;;;;;0.10;0.10;;;13.40;99.90;;;;;;4989868;28;21040;-83
2022/10/28 02:40:55;;;;;;;0.10;0.10;;;13.40;99.90;;;;;;5008640;28;20466;-84
2022/10/28 02:43:23;;;;;;;0.10;0.10;;;13.30;99.90;;;;;;5007537;28;20990;-83
2022/10/28 02:45:53;;;;;;;0.20;0.20;;;13.30;99.90;;;;;;4992830;28;20467;-83
2022/10/28 02:48:23;;;;;;;0.20;0.20;;;13.30;99.90;;;;;;5011275;28;20471;-83
2022/10/28 02:50:56;;;;;;;0.10;0.10;;;13.30;99.90;;;;;;5008446;28;20450;-83
2022/10/28 02:53:29;;;;;;;0.10;0.10;;;13.30;99.90;;;;;;4992747;28;20618;-83
2022/10/28 02:55:57;;;;;;;0.10;0.10;;;13.30;99.90;;;;;;5009381;28;20446;-80
2022/10/28 02:58:23;;;;;;;0.10;0.10;;;13.30;99.90;;;;;;5012300;28;20423;-80
2022/10/28 03:00:49;;;;;;;0.10;0.10;;;13.30;99.90;;;;;;5006584;28;20850;-81
2022/10/28 03:03:15;;;;;;;0.10;0.10;;;13.30;99.90;;;;;;4992777;28;20223;-81
2022/10/28 03:05:40;;;;;;;0.10;0.10;;;13.30;99.90;;;;;;5008703;28;20466;-81
2022/10/28 03:08:06;;;;;;;0.10;0.10;;;13.20;99.90;;;;;;5010910;28;20185;-81
2022/10/28 03:10:31;;;;;;;0.10;0.10;;;13.20;99.90;;;;;;5010580;28;20564;-82
2022/10/28 03:12:57;;;;;;;0.20;0.20;;;13.20;99.90;;;;;;5001724;28;20676;-83
2022/10/28 03:15:22;;;;;;;0.10;0.10;;;13.10;99.90;;;;;;4998335;28;20188;-81
2022/10/28 03:17:48;;;;;;;0.13;0.13;;;13.10;99.90;;;;;;5003813;28;20577;-80
2022/10/28 03:20:13;;;;;;;0.10;0.10;;;13.10;99.90;;;;;;5008446;28;20180;-80
2022/10/28 03:22:42;;;;;;;0.10;0.10;;;13.10;99.90;;;;;;5004589;28;20331;-81
2022/10/28 03:25:08;;;;;;;0.10;0.10;;;13.10;99.90;;;;;;5011694;28;20184;-80
2022/10/28 03:27:34;;;;;;;0.10;0.10;;;13.10;99.90;;;;;;5009263;28;20443;-80
2022/10/28 03:29:59;;;;;;;0.10;0.10;;;13.10;99.90;;;;;;5008354;28;20463;-80
2022/10/28 03:32:25;;;;;;;0.10;0.10;;;13.10;99.90;;;;;;4988900;28;20199;-80
2022/10/28 03:34:50;;;;;;;0.10;0.10;;;13.10;99.90;;;;;;4993271;28;20189;-80
2022/10/28 03:37:16;;;;;;;0.20;0.20;;;13.20;99.90;;;;;;4986288;28;20212;-81
2022/10/28 03:39:41;;;;;;;0.10;0.10;;;13.10;99.90;;;;;;4979132;28;20229;-81
2022/10/28 03:42:07;;;;;;;0.10;0.10;;;13.10;99.90;;;;;;4989062;28;20264;-80
2022/10/28 03:44:32;;;;;;;0.10;0.10;;;13.10;99.90;;;;;;4991730;28;20235;-80
2022/10/28 03:46:58;;;;;;;0.10;0.10;;;13.10;99.90;;;;;;5003446;28;20270;-81
2022/10/28 03:49:23;;;;;;;0.20;0.20;;;13.20;99.90;;;;;;4991458;28;20242;-81
2022/10/28 03:51:49;;;;;;;0.20;0.20;;;13.20;99.90;;;;;;5006963;28;20193;-80
2022/10/28 03:54:14;;;;;;;0.10;0.10;;;13.20;99.90;;;;;;5010749;28;20211;-80
2022/10/28 03:56:40;;;;;;;0.20;0.20;;;13.20;99.90;;;;;;5004168;28;20401;-81
2022/10/28 03:59:08;;;;;;;0.10;0.10;;;13.20;99.90;;;;;;5005682;28;20216;-80
2022/10/28 04:01:33;;;;;;;0.10;0.10;;;13.30;99.90;;;;;;5002684;28;20211;-82
2022/10/28 04:03:59;;;;;;;0.10;0.10;;;13.30;99.90;;;;;;4992116;28;20487;-81
2022/10/28 04:06:24;;;;;;;0.10;0.10;;;13.30;99.90;;;;;;4991810;28;20184;-81
2022/10/28 04:08:50;;;;;;;0.10;0.10;;;13.30;99.90;;;;;;5001032;28;20195;-81
2022/10/28 04:11:15;;;;;;;0.10;0.10;;;13.30;99.90;;;;;;5007153;28;20185;-81
2022/10/28 04:13:41;;;;;;;0.10;0.10;;;13.30;99.90;;;;;;5003290;28;20785;-81
2022/10/28 04:16:06;;;;;;;0.10;0.10;;;13.30;99.90;;;;;;4989324;28;20222;-81
2022/10/28 04:18:34;;;;;;;0.10;0.10;;;13.40;99.90;;;;;;4991503;28;20800;-81
2022/10/28 04:20:59;;;;;;;0.20;0.20;;;13.40;99.90;;;;;;5010211;28;20226;-80
2022/10/28 04:23:25;;;;;;;0.10;0.10;;;13.40;99.90;;;;;;5008037;28;20868;-81
2022/10/28 04:25:53;;;;;;;0.10;0.10;;;13.40;99.90;;;;;;4996219;28;20190;-83
2022/10/28 04:28:19;;;;;;;0.10;0.10;;;13.40;99.90;;;;;;4981363;28;20185;-83
2022/10/28 04:30:46;;;;;;;0.10;0.10;;;13.40;99.90;;;;;;5004255;28;20442;-81
2022/10/28 04:33:12;;;;;;;0.10;0.10;;;13.40;99.90;;;;;;5009125;28;20880;-83
2022/10/28 04:35:41;;;;;;;0.10;0.10;;;13.40;99.90;;;;;;5007114;28;20541;-84
2022/10/28 04:38:07;;;;;;;0.10;0.10;;;13.30;99.90;;;;;;4991639;28;20247;-82
2022/10/28 04:40:32;;;;;;;0.10;0.10;;;13.40;99.90;;;;;;4999882;28;20991;-83
2022/10/28 04:42:58;;;;;;;0.10;0.10;;;13.40;99.90;;;;;;5003922;28;20223;-83
2022/10/28 04:45:23;;;;;;;0.10;0.10;;;13.40;99.90;;;;;;4994537;28;20644;-83
2022/10/28 04:47:49;;;;;;;0.10;0.10;;;13.30;99.90;;;;;;5005462;28;20196;-83
2022/10/28 04:50:14;;;;;;;0.10;0.10;;;13.40;99.90;;;;;;4984278;28;20185;-83
2022/10/28 04:52:40;;;;;;;0.10;0.10;;;13.40;99.90;;;;;;4990013;28;20184;-84
2022/10/28 04:55:05;;;;;;;0.10;0.10;;;13.30;99.90;;;;;;5013388;28;20276;-83
2022/10/28 04:57:31;;;;;;;0.10;0.10;;;13.30;99.90;;;;;;4988253;28;20197;-83
2022/10/28 04:59:57;;;;;;;0.10;0.10;;;13.20;99.90;;;;;;5005780;28;20226;-83
2022/10/28 05:02:22;;;;;;;0.10;0.10;;;13.20;99.90;;;;;;4981249;28;20439;-83
2022/10/28 05:04:48;;;;;;;0.10;0.10;;;13.30;99.90;;;;;;5007805;28;20196;-83
2022/10/28 05:07:13;;;;;;;0.10;0.10;;;13.10;99.90;;;;;;5009344;28;20714;-84
2022/10/28 05:09:39;;;;;;;0.10;0.10;;;13.00;99.90;;;;;;5008161;28;20759;-84
2022/10/28 05:12:05;;;;;;;0.10;0.10;;;13.10;99.90;;;;;;5007586;28;20223;-84
2022/10/28 05:14:31;;;;;;;0.10;0.10;;;13.10;99.90;;;;;;5009274;28;20184;-84
2022/10/28 05:16:56;;;;;;;0.10;0.10;;;13.20;99.90;;;;;;5005153;28;20454;-84
2022/10/28 05:19:22;;;;;;;0.10;0.10;;;13.10;99.90;;;;;;5005539;28;20181;-80
2022/10/28 05:21:47;;;;;;;0.10;0.10;;;13.20;99.90;;;;;;4987441;28;20584;-81
2022/10/28 05:24:13;;;;;;;0.10;0.10;;;13.30;99.90;;;;;;5009160;28;20224;-81
2022/10/28 05:26:38;;;;;;;0.10;0.10;;;13.30;99.90;;;;;;4985569;28;20185;-82
2022/10/28 05:29:04;;;;;;;0.10;0.10;;;13.30;99.90;;;;;;4983971;28;20188;-82
2022/10/28 05:31:29;;;;;;;0.10;0.10;;;13.30;99.90;;;;;;4995342;28;20279;-82
2022/10/28 05:33:55;;;;;;;0.10;0.10;;;13.40;99.90;;;;;;5000896;28;20242;-86
2022/10/28 05:36:20;;;;;;;0.20;0.20;;;13.30;99.90;;;;;;4999772;28;20287;-84
2022/10/28 05:38:46;;;;;;;0.10;0.10;;;13.30;99.90;;;;;;5007509;28;20240;-83
2022/10/28 05:41:11;;;;;;;0.10;0.10;;;13.30;99.90;;;;;;5007684;28;20608;-82
2022/10/28 05:43:37;;;;;;;0.10;0.10;;;13.30;99.90;;;;;;5005637;28;20224;-84
2022/10/28 05:46:03;;;;;;;0.10;0.10;;;13.30;99.90;;;;;;4986546;28;20181;-84
2022/10/28 05:48:28;;;;;;;0.10;0.10;;;13.30;99.90;;;;;;5005141;28;20264;-85
2022/10/28 05:50:54;;;;;;;0.10;0.10;;;13.30;99.90;;;;;;5004695;28;20530;-85
2022/10/28 05:53:19;;;;;;;0.10;0.10;;;13.20;99.90;;;;;;5007402;28;20189;-84
2022/10/28 05:55:45;;;;;;;0.10;0.10;;;13.30;99.90;;;;;;5003415;28;20232;-84
2022/10/28 05:58:10;;;;;;;0.10;0.10;;;13.30;99.90;;;;;;5002087;28;20645;-85
2022/10/28 06:00:36;;;;;;;0.20;0.20;;;13.30;99.90;;;;;;5003525;28;20227;-83
2022/10/28 06:03:08;;;;;;;0.10;0.10;;;13.40;99.90;;;;;;5007175;28;20263;-82
2022/10/28 06:05:36;;;;;;;0.10;0.10;;;13.40;99.90;;;;;;5007699;28;20186;-83
2022/10/28 06:08:04;;;;;;;0.10;0.10;;;13.40;99.90;;;;;;5006997;28;20442;-83
2022/10/28 06:10:29;;;;;;;0.10;0.10;;;13.40;99.90;;;;;;5007395;28;20483;-82
2022/10/28 06:12:56;;;;;;;0.10;0.10;;;13.40;99.90;;;;;;5011455;28;20993;-83
2022/10/28 06:15:21;;;;;;;0.20;0.20;;;13.40;99.90;;;;;;5006254;28;20722;-84
2022/10/28 06:17:48;;;;;;;0.10;0.10;;;13.40;99.90;;;;;;5009867;28;20435;-83
2022/10/28 06:20:14;;;;;;;0.10;0.10;;;13.40;99.90;;;;;;5009674;28;20671;-83
2022/10/28 06:22:48;;;;;;;0.10;0.10;;;13.40;99.90;;;;;;5009087;28;20470;-84
2022/10/28 06:25:13;;;;;;;0.10;0.10;;;13.40;99.90;;;;;;5011315;28;20188;-86
2022/10/28 06:27:39;;;;;;;0.10;0.10;;;13.40;99.90;;;;;;4991522;28;20443;-86
2022/10/28 06:30:05;;;;;;;0.10;0.10;;;13.40;99.90;;;;;;5010367;28;20196;-87
2022/10/28 06:32:31;;;;;;;0.10;0.10;;;13.40;99.90;;;;;;5010945;28;20648;-87
2022/10/28 06:34:56;;;;;;;0.10;0.10;;;13.40;99.90;;;;;;5008586;28;20454;-86
2022/10/28 06:37:22;;;;;;;0.10;0.10;;;13.40;99.90;;;;;;5012097;28;20192;-85
2022/10/28 06:39:51;;;;;;;0.10;0.10;;;13.30;99.90;;;;;;5004407;28;20220;-87
2022/10/28 06:42:18;;;;;;;0.10;0.10;;;13.30;99.90;;;;;;4991564;28;20238;-87
2022/10/28 06:44:44;;;;;;;0.20;0.20;;;13.20;99.90;;;;;;4984278;28;20467;-86
2022/10/28 06:47:09;;;;;;;0.20;0.20;;;13.20;99.90;;;;;;4976557;28;20450;-86
2022/10/28 06:49:35;;;;;;;0.10;0.10;;;13.20;99.90;;;;;;4978464;28;20199;-86
2022/10/28 06:52:00;;;;;;;0.10;0.10;;;13.20;99.90;;;;;;4977137;28;20180;-85
2022/10/28 06:54:26;;;;;;;0.10;0.10;;;13.20;99.90;;;;;;4993559;28;20200;-86
2022/10/28 06:56:51;;;;;;;0.10;0.10;;;13.20;99.90;;;;;;4997267;28;20290;-85
2022/10/28 06:59:17;;;;;;;0.10;0.10;;;13.10;99.90;;;;;;4973933;28;20185;-86
2022/10/28 07:01:43;;;;;;;0.20;0.20;;;13.20;99.90;;;;;;4990836;28;20204;-87
2022/10/28 07:04:12;;;;;;;0.10;0.10;;;13.10;99.90;;;;;;4992647;28;20594;-87
2022/10/28 07:06:38;;;;;;;0.10;0.10;;;13.10;99.90;;;;;;4992748;28;20201;-87
2022/10/28 07:09:04;;;;;;;0.10;0.10;;;13.20;99.90;;;;;;4995119;28;20450;-87
2022/10/28 07:11:30;;;;;;;0.10;0.10;;;13.20;99.90;;;;;;4997343;28;20443;-86
2022/10/28 07:13:55;;;;;;;0.10;0.10;;;13.30;99.90;;;;;;4991952;28;20465;-86
2022/10/28 07:16:21;;;;;;;0.10;0.10;;;13.30;99.90;;;;;;5002282;28;20185;-84
2022/10/28 07:18:46;;;;;;;0.10;0.10;;;13.30;99.90;;;;;;5010717;28;20251;-83
2022/10/28 07:21:13;;;;;;;0.10;0.10;;;13.30;99.90;;;;;;5008631;28;20223;-84
2022/10/28 07:23:38;;;;;;;0.10;0.10;;;13.30;99.90;;;;;;5009784;28;20287;-84
2022/10/28 07:26:04;;;;;;;0.10;0.10;;;13.30;99.90;;;;;;5008397;28;20947;-83
2022/10/28 07:28:30;;;;;;;0.10;0.10;;;13.30;99.90;;;;;;5006630;28;20192;-83
2022/10/28 07:31:00;;;;;;;0.10;0.10;;;13.40;99.90;;;;;;5002290;28;20190;-84
2022/10/28 07:33:25;;;;;;;0.10;0.10;;;13.50;99.90;;;;;;5010051;28;20974;-86
2022/10/28 07:35:51;;;;;;;0.10;0.10;;;13.60;99.90;;;;;;5007279;28;20447;-86
2022/10/28 07:38:16;;;;;;;0.10;0.10;;;13.70;99.90;;;;;;5001451;28;20189;-86
2022/10/28 07:40:42;;;;;;;0.10;0.10;;;13.80;99.90;;;;;;5007439;28;20650;-86
2022/10/28 07:43:08;;;;;;;0.10;0.10;;;13.90;99.90;;;;;;4989076;28;20208;-87
2022/10/28 07:45:34;;;;;;;0.10;0.10;;;14.00;99.90;;;;;;5007316;28;20288;-87
2022/10/28 07:47:59;;;;;;;0.10;0.10;;;14.10;99.90;;;;;;4978104;28;20577;-84
2022/10/28 07:50:25;;;;;;;0.10;0.10;;;14.30;99.90;;;;;;4997788;28;20448;-85
2022/10/28 07:52:51;;;;;;;0.10;0.10;;;14.30;99.90;;;;;;5006410;28;20180;-86
2022/10/28 07:55:16;;;;;;;0.10;0.10;;;14.50;99.90;;;;;;5008830;28;20650;-84
2022/10/28 07:57:42;;;;;;;0.10;0.10;;;14.60;99.90;;;;;;4985699;28;20193;-85
2022/10/28 08:00:08;;;;;;;0.10;0.10;;;14.70;99.90;;;;;;4999737;28;20280;-84
2022/10/28 08:02:33;;;;;;;0.10;0.10;;;14.80;99.90;;;;;;5007473;28;20188;-86
2022/10/28 08:05:00;;;;;;;0.10;0.10;;;14.90;99.90;;;;;;5007787;28;20455;-89
2022/10/28 08:07:26;;;;;;;0.10;0.10;;;15.00;99.90;;;;;;4991695;28;20195;-89
2022/10/28 08:09:52;;;;;;;0.10;0.10;;;15.20;99.90;;;;;;4990860;28;20817;-91
2022/10/28 08:12:17;;;;;;;0.10;0.10;;;15.30;99.90;;;;;;5007727;28;20184;-91
2022/10/28 08:14:43;;;;;;;0.10;0.10;;;15.40;99.90;;;;;;5006618;28;20199;-90
2022/10/28 08:17:09;;;;;;;0.10;0.10;;;15.50;99.90;;;;;;5006805;28;20188;-90
2022/10/28 08:19:34;;;;;;;0.10;0.10;;;15.70;99.90;;;;;;5008245;28;20225;-90
2022/10/28 08:22:01;;;;;;;0.10;0.10;;;15.80;99.90;;;;;;4989563;28;20192;-88
2022/10/28 08:24:27;;;;;;;0.10;0.10;;;15.90;99.90;;;;;;4991154;28;20591;-88
2022/10/28 08:26:52;;;;;;;0.10;0.10;;;16.00;99.90;;;;;;4993715;28;20454;-91
2022/10/28 08:29:17;;;;;;;0.10;0.10;;;16.10;99.90;;;;;;4990032;28;20227;-89
2022/10/28 08:31:43;;;;;;;0.10;0.10;;;16.10;99.90;;;;;;5007307;28;20714;-89
2022/10/28 08:34:08;;;;;;;0.10;0.10;;;16.10;99.90;;;;;;5008679;28;20180;-90
2022/10/28 08:36:35;;;;;;;0.10;0.10;;;16.00;99.90;;;;;;5010521;28;20562;-89
2022/10/28 08:39:03;;;;;;;0.10;0.10;;;16.10;99.90;;;;;;5006720;28;20240;-89
2022/10/28 08:41:38;;;;;;;0.10;0.10;;;16.20;99.90;;;;;;5005005;28;20451;-89
2022/10/28 08:44:31;;;;;;;0.10;0.10;;;16.40;99.90;;;;;;5003628;28;20474;-89
2022/10/28 08:47:09;;;;;;;0.10;0.10;;;16.50;99.90;;;;;;5003976;28;20530;-88
2022/10/28 08:49:39;;;;;;;0.10;0.10;;;16.70;99.90;;;;;;5006655;28;20445;-92
2022/10/28 08:52:31;;;;;;;0.10;0.10;;;16.80;99.90;;;;;;4979858;28;20439;-88
2022/10/28 08:55:00;;;;;;;0.10;0.10;;;17.00;99.90;;;;;;5007495;28;20470;-88
2022/10/28 08:57:35;;;;;;;0.10;0.10;;;17.00;99.90;;;;;;5005476;28;20455;-90
2022/10/28 09:00:03;;;;;;;0.10;0.10;;;17.20;99.90;;;;;;4991128;28;20417;-89
2022/10/28 09:02:42;;;;;;;0.10;0.10;;;17.30;99.90;;;;;;5001338;28;20463;-88
2022/10/28 09:05:21;;;;;;;0.10;0.10;;;17.40;99.90;;;;;;4999038;28;20797;-91
2022/10/28 09:07:46;;;;;;;0.10;0.10;;;17.60;99.90;;;;;;5003191;28;20435;-91
2022/10/28 09:10:14;;;;;;;0.10;0.10;;;17.70;99.90;;;;;;5008398;28;20994;-91
2022/10/28 09:12:52;;;;;;;0.10;0.10;;;17.60;99.90;;;;;;4989754;28;20989;-92
2022/10/28 09:15:37;;;;;;;0.10;0.10;;;17.70;99.90;;;;;;5000861;28;20455;-89
2022/10/28 09:18:23;;;;;;;0.10;0.10;;;17.70;99.90;;;;;;5001281;28;20454;-92
2022/10/28 09:20:52;;;;;;;0.10;0.10;;;17.70;99.90;;;;;;5001959;28;20455;-91
2022/10/28 09:23:21;;;;;;;0.10;0.10;;;17.90;99.90;;;;;;5004160;28;20479;-89
2022/10/28 09:26:06;;;;;;;0.10;0.00;;;18.00;99.90;;;;;;5008004;28;20518;-91
2022/10/28 09:28:55;;;;;;;0.10;0.00;;;18.00;99.90;;;;;;4989111;28;21246;-91
2022/10/28 09:31:38;;;;;;;0.10;0.10;;;18.40;99.90;;;;;;5008686;28;20485;-90
2022/10/28 09:34:18;;;;;;;0.10;0.10;;;18.50;99.90;;;;;;5009818;28;20430;-90
2022/10/28 09:36:51;;;;;;;0.10;0.00;;;18.80;99.90;;;;;;4995526;28;20439;-90
2022/10/28 09:39:21;;;;;;;0.10;0.07;;;18.80;99.90;;;;;;4996481;28;20617;-90
2022/10/28 09:41:49;;;;;;;0.10;0.00;;;18.90;99.90;;;;;;5010500;28;20451;-92
2022/10/28 09:44:23;;;;;;;0.10;0.10;;;18.80;99.90;;;;;;5004305;28;20479;-91
2022/10/28 09:46:55;;;;;;;0.10;0.00;;;19.00;99.90;;;;;;5004358;28;20554;-89
2022/10/28 09:49:25;;;;;;;0.10;0.10;;;18.90;99.90;;;;;;4992546;28;20562;-89
2022/10/28 09:52:14;;;;;;;0.10;0.10;;;19.20;99.90;;;;;;4998391;28;20514;-90
2022/10/28 09:54:47;;;;;;;0.10;0.00;;;19.20;99.90;;;;;;5000660;28;20512;-89
2022/10/28 09:57:12;;;;;;;0.10;0.00;;;19.50;99.90;;;;;;4988988;28;21323;-89
2022/10/28 09:59:38;;;;;;;0.10;0.00;;;19.90;99.90;;;;;;5008067;28;20451;-91
2022/10/28 10:02:03;;;;;;;0.10;0.00;;;19.80;99.90;;;;;;5011013;28;20271;-89
2022/10/28 10:04:32;;;;;;;0.10;0.00;;;20.00;99.90;;;;;;5007299;28;20228;-91
2022/10/28 10:07:03;;;;;;;0.10;0.00;;;20.00;99.90;;;;;;4993078;28;20180;-91
2022/10/28 10:09:30;;;;;;;0.10;0.00;;;20.40;99.90;;;;;;5012041;28;20446;-93
2022/10/28 10:12:03;;;;;;;0.10;0.00;;;20.60;99.90;;;;;;5009410;28;20442;-85
2022/10/28 10:14:37;;;;;;;0.10;0.00;;;20.60;99.90;;;;;;5009068;28;20443;-87
2022/10/28 10:17:08;;;;;;;0.10;0.10;;;20.40;99.90;;;;;;4993437;28;20447;-85
2022/10/28 10:20:01;;;;;;;0.10;0.00;;;20.90;99.90;;;;;;4996332;28;20577;-86
2022/10/28 10:22:36;;;;;;;0.10;0.00;;;21.00;99.90;;;;;;5005113;28;20479;-85
2022/10/28 10:25:21;;;;;;;0.10;0.00;;;21.30;99.90;;;;;;5001914;28;20450;-84
2022/10/28 10:27:53;;;;;;;0.10;0.10;;;21.00;99.90;;;;;;5005727;28;20514;-88
2022/10/28 10:30:33;;;;;;;0.10;0.00;;;21.10;99.90;;;;;;5007379;28;20442;-87
2022/10/28 10:33:00;;;;;;;0.10;0.00;;;21.20;99.90;;;;;;5009728;28;20895;-86
2022/10/28 10:35:31;;;;;;;0.10;0.10;;;21.20;99.90;;;;;;5016247;28;20526;-87
2022/10/28 10:38:03;;;;;;;0.00;0.00;;;21.00;99.90;;;;;;5011977;28;20453;-86
2022/10/28 10:40:32;;;;;;;0.00;0.00;;;21.10;99.90;;;;;;5002042;28;20491;-85
2022/10/28 10:43:16;;;;;;;0.00;0.00;;;21.30;99.90;;;;;;5010698;28;20463;-86
2022/10/28 10:46:00;;;;;;;0.00;0.00;;;21.90;99.90;;;;;;5002176;28;20522;-85
2022/10/28 10:48:27;;;;;;;0.00;0.00;;;22.20;99.90;;;;;;5005691;28;20470;-84
2022/10/28 10:50:53;;;;;;;0.00;0.00;;;22.50;99.90;;;;;;5011263;28;20461;-86
2022/10/28 10:53:25;;;;;;;0.00;0.00;;;22.80;99.90;;;;;;4992516;28;20497;-86
2022/10/28 10:56:07;;;;;;;0.00;0.00;;;22.90;99.90;;;;;;4998610;28;20942;-85
2022/10/28 10:58:54;;;;;;;0.00;0.00;;;22.80;99.90;;;;;;4981471;28;20538;-86
2022/10/28 11:01:26;;;;;;;0.00;0.00;;;23.00;99.90;;;;;;5010145;28;21465;-87
2022/10/28 11:03:56;;;;;;;0.00;0.00;;;23.20;99.90;;;;;;4994563;28;20490;-87
2022/10/28 11:06:43;;;;;;;0.00;0.00;;;23.20;99.90;;;;;;4992779;28;20494;-86
2022/10/28 11:09:33;;;;;;;0.00;0.00;;;23.30;99.90;;;;;;5010018;28;20950;-87
2022/10/28 11:11:59;;;;;;;0.00;0.00;;;23.60;99.90;;;;;;5002847;28;20455;-86
2022/10/28 11:14:31;;;;;;;0.00;0.00;;;23.90;99.90;;;;;;4991595;28;20553;-85
2022/10/28 11:17:01;;;;;;;0.10;0.00;;;24.20;99.90;;;;;;5004501;28;20243;-86
2022/10/28 11:19:34;;;;;;;0.10;0.00;;;24.40;99.90;;;;;;5000087;28;20560;-87
2022/10/28 11:22:30;;;;;;;0.10;0.00;;;24.40;99.90;;;;;;5001606;28;21179;-88
2022/10/28 11:25:22;;;;;;;0.10;0.00;;;23.90;99.90;;;;;;5008536;28;20497;-86
2022/10/28 11:28:32;;;;;;;0.10;0.00;;;24.10;99.90;;;;;;5012696;28;20518;-85
2022/10/28 11:31:18;;;;;;;0.10;0.00;;;24.50;99.90;;;;;;4985390;28;20447;-87
2022/10/28 11:33:49;;;;;;;0.10;0.00;;;24.30;99.90;;;;;;4999080;28;20530;-86
2022/10/28 11:36:37;;;;;;;0.10;0.00;;;24.30;99.90;;;;;;4988108;28;20881;-85
2022/10/28 11:39:27;;;;;;;0.10;0.00;;;24.20;99.90;;;;;;4992686;28;20557;-83
2022/10/28 11:42:11;;;;;;;0.10;0.00;;;24.00;99.90;;;;;;4993927;28;20490;-83
2022/10/28 11:44:53;;;;;;;0.10;0.00;;;24.00;99.90;;;;;;4995768;28;20491;-84
2022/10/28 11:47:46;;;;;;;0.10;0.00;;;24.00;99.90;;;;;;5015865;28;20529;-84
2022/10/28 11:50:21;;;;;;;0.10;0.00;;;23.90;99.90;;;;;;5008887;28;20459;-85
2022/10/28 11:53:21;;;;;;;0.10;0.00;;;23.30;99.90;;;;;;5001872;28;20438;-87
2022/10/28 11:55:56;;;;;;;0.10;0.00;;;23.00;99.90;;;;;;4999910;28;20491;-86
2022/10/28 11:58:26;;;;;;;0.10;0.00;;;23.20;99.90;;;;;;4989778;28;20524;-86
2022/10/28 12:01:02;;;;;;;0.10;0.00;;;22.60;99.90;;;;;;5004080;28;20980;-85
2022/10/28 12:03:53;;;;;;;0.10;0.00;;;22.60;99.90;;;;;;5004857;28;20534;-85
2022/10/28 12:06:56;;;;;;;0.10;0.00;;;22.60;99.90;;;;;;5003896;28;20923;-88
2022/10/28 12:09:27;;;;;;;0.10;0.00;;;22.30;99.90;;;;;;4997137;28;20435;-88
2022/10/28 12:12:24;;;;;;;0.10;0.00;;;22.80;99.90;;;;;;5000144;28;20478;-84
2022/10/28 12:15:11;;;;;;;0.10;0.00;;;23.00;99.90;;;;;;4994657;28;20680;-86
2022/10/28 12:18:02;;;;;;;0.10;0.00;;;22.90;99.90;;;;;;5010997;28;20454;-84
2022/10/28 12:20:40;;;;;;;0.10;0.00;;;23.30;99.90;;;;;;5009452;28;20458;-84
2022/10/28 12:23:16;;;;;;;0.10;0.00;;;23.40;99.90;;;;;;5007407;28;20506;-83
2022/10/28 12:25:46;;;;;;;0.10;0.00;;;23.80;99.90;;;;;;5006075;28;20457;-85
2022/10/28 12:28:18;;;;;;;0.10;0.00;;;24.10;99.90;;;;;;5005059;28;20423;-86
2022/10/28 12:30:45;;;;;;;0.10;0.00;;;23.80;99.90;;;;;;4999219;28;20450;-82
2022/10/28 12:33:23;;;;;;;0.10;0.00;;;23.20;99.90;;;;;;5005611;28;20447;-82
2022/10/28 12:36:14;;;;;;;0.10;0.00;;;23.00;99.90;;;;;;5007162;28;20926;-83
2022/10/28 12:38:44;;;;;;;0.10;0.00;;;23.40;99.90;;;;;;4971158;28;20470;-86
2022/10/28 12:41:17;;;;;;;0.10;0.00;;;23.80;99.90;;;;;;5006022;28;20458;-85
2022/10/28 12:44:08;;;;;;;0.10;0.00;;;24.30;99.90;;;;;;5007318;28;20542;-86
2022/10/28 12:46:47;;;;;;;0.10;0.00;;;24.50;99.90;;;;;;4985974;28;20451;-86
2022/10/28 12:49:26;;;;;;;0.10;0.00;;;25.60;99.90;;;;;;4992212;28;20450;-87
2022/10/28 12:51:53;;;;;;;0.10;0.00;;;26.40;99.90;;;;;;4994424;28;20450;-88
2022/10/28 12:54:30;;;;;;;0.10;0.00;;;27.00;99.90;;;;;;4974904;28;20447;-83
2022/10/28 12:57:11;;;;;;;0.10;0.00;;;27.00;99.90;;;;;;4991195;28;20439;-83
2022/10/28 13:00:12;;;;;;;0.10;0.00;;;26.50;99.90;;;;;;4990157;28;20447;-83
2022/10/28 13:02:45;;;;;;;0.10;0.00;;;26.80;99.90;;;;;;4966409;28;20435;-84
2022/10/28 13:05:20;;;;;;;0.10;0.00;;;27.00;99.90;;;;;;4965442;28;20452;-87
2022/10/28 13:07:51;;;;;;;0.10;0.00;;;26.60;99.90;;;;;;4987650;28;20431;-87
2022/10/28 13:10:22;;;;;;;0.10;0.00;;;26.90;99.90;;;;;;4988482;28;20520;-85
2022/10/28 13:13:13;;;;;;;0.10;0.00;;;27.10;99.90;;;;;;4975523;28;20517;-85